Time;durP1;ratioP1;P1;durP2;ratioP2;P2;SDS_P1;SDS_P2;PMS_P1;PMS_P2;Temp;Humidity;BMP_temperature;BMP_pressure;BME280_temperature;BME280_humidity;BME280_pressure;Samples;Min_cycle;Max_cycle;Signal;HPM_P1;HPM_P2
2021/10/23 00:00:26;;;;;;;16.02;3.53;;;;;;;;;;4971885;28;20023;-60
2021/10/23 00:02:53;;;;;;;11.10;3.33;;;;;;;;;;4976513;28;20030;-59
2021/10/23 00:05:20;;;;;;;9.95;2.63;;;;;;;;;;4975415;28;20373;-59
2021/10/23 00:07:47;;;;;;;10.60;2.88;;;;;;;;;;4973377;28;20039;-59
2021/10/23 00:10:14;;;;;;;10.65;2.53;;;;;;;;;;4971740;28;20038;-59
2021/10/23 00:12:41;;;;;;;12.20;3.15;;;;;;;;;;4974544;28;20042;-58
2021/10/23 00:15:09;;;;;;;15.23;2.85;;;;;;;;;;4972492;28;20209;-58
2021/10/23 00:17:36;;;;;;;11.68;3.22;;;;;;;;;;4974113;28;20034;-59
2021/10/23 00:20:03;;;;;;;9.65;2.92;;;;;;;;;;4969915;28;20023;-59
2021/10/23 00:22:31;;;;;;;16.08;3.15;;;;;;;;;;4972111;28;20487;-59
2021/10/23 00:24:59;;;;;;;13.90;2.70;;;;;;;;;;4972814;28;20031;-58
2021/10/23 00:27:27;;;;;;;11.70;2.83;;;;;;;;;;4970247;28;20033;-56
2021/10/23 00:29:54;;;;;;;11.57;3.47;;;;;;;;;;4977329;28;20018;-59
2021/10/23 00:32:21;;;;;;;16.52;2.97;;;;;;;;;;4972930;28;20035;-57
2021/10/23 00:34:48;;;;;;;11.63;3.03;;;;;;;;;;4972163;28;20423;-59
2021/10/23 00:37:15;;;;;;;13.13;2.78;;;;;;;;;;4979931;28;20062;-59
2021/10/23 00:39:42;;;;;;;13.50;3.15;;;;;;;;;;4975331;28;20034;-59
2021/10/23 00:42:09;;;;;;;11.10;2.72;;;;;;;;;;4975255;28;20634;-58
2021/10/23 00:44:37;;;;;;;15.52;3.42;;;;;;;;;;4976320;28;20106;-59
2021/10/23 00:47:05;;;;;;;16.67;3.10;;;;;;;;;;4981326;28;20030;-57
2021/10/23 00:49:33;;;;;;;18.40;3.70;;;;;;;;;;4977756;28;20473;-59
2021/10/23 00:52:02;;;;;;;17.45;3.35;;;;;;;;;;4974417;28;20047;-59
2021/10/23 00:54:30;;;;;;;16.13;3.58;;;;;;;;;;4987213;28;20077;-59
2021/10/23 00:56:57;;;;;;;19.05;4.38;;;;;;;;;;4980148;28;20022;-59
2021/10/23 00:59:25;;;;;;;31.88;6.20;;;;;;;;;;4977266;28;20051;-59
2021/10/23 01:01:52;;;;;;;35.55;6.97;;;;;;;;;;4974989;28;20038;-59
2021/10/23 01:04:23;;;;;;;28.92;6.28;;;;;;;;;;4980659;28;20027;-59
2021/10/23 01:06:51;;;;;;;24.05;5.60;;;;;;;;;;4974610;28;20073;-59
2021/10/23 01:09:19;;;;;;;27.52;6.70;;;;;;;;;;4975356;28;20724;-59
2021/10/23 01:11:47;;;;;;;28.40;5.95;;;;;;;;;;4972240;28;20053;-59
2021/10/23 01:14:14;;;;;;;29.30;6.63;;;;;;;;;;4981965;28;20486;-59
2021/10/23 01:16:42;;;;;;;27.63;6.70;;;;;;;;;;4976013;28;20049;-59
2021/10/23 01:19:09;;;;;;;30.25;6.75;;;;;;;;;;4979730;28;20058;-59
2021/10/23 01:21:37;;;;;;;24.13;6.55;;;;;;;;;;4980657;28;20478;-59
2021/10/23 01:24:09;;;;;;;33.60;6.72;;;;;;;;;;4981319;28;20022;-61
2021/10/23 01:26:39;;;;;;;21.70;5.72;;;;;;;;;;4979597;28;20039;-60
2021/10/23 01:29:08;;;;;;;25.15;6.38;;;;;;;;;;4976119;28;20057;-59
2021/10/23 01:31:35;;;;;;;26.42;6.50;;;;;;;;;;4980142;28;20351;-58
2021/10/23 01:34:22;;;;;;;23.02;6.05;;;;;;;;;;4977339;28;20027;-59
2021/10/23 01:36:55;;;;;;;29.15;5.93;;;;;;;;;;4979704;28;20435;-58
2021/10/23 01:39:23;;;;;;;22.35;5.55;;;;;;;;;;4982083;28;20030;-59
2021/10/23 01:41:51;;;;;;;23.70;5.95;;;;;;;;;;4981994;28;20023;-59
2021/10/23 01:44:18;;;;;;;19.25;5.28;;;;;;;;;;4982871;28;20030;-60
2021/10/23 01:46:45;;;;;;;22.92;5.43;;;;;;;;;;4970921;28;20669;-60
2021/10/23 01:49:12;;;;;;;20.35;5.70;;;;;;;;;;4978711;28;20027;-59
2021/10/23 01:51:39;;;;;;;20.52;5.75;;;;;;;;;;4993848;28;20038;-59
2021/10/23 01:54:08;;;;;;;24.70;5.93;;;;;;;;;;4992909;28;20022;-58
2021/10/23 01:56:36;;;;;;;26.63;6.00;;;;;;;;;;4985995;28;20065;-60
2021/10/23 01:59:05;;;;;;;18.40;5.47;;;;;;;;;;4974831;28;20030;-59
2021/10/23 02:01:33;;;;;;;19.77;5.28;;;;;;;;;;4981022;28;20038;-59
2021/10/23 02:04:02;;;;;;;20.00;5.30;;;;;;;;;;4982937;28;20025;-59
2021/10/23 02:06:30;;;;;;;18.90;5.43;;;;;;;;;;4978047;28;20613;-60
2021/10/23 02:08:58;;;;;;;18.42;5.30;;;;;;;;;;4981285;28;20081;-58
2021/10/23 02:11:26;;;;;;;15.25;5.18;;;;;;;;;;4982240;28;20019;-59
2021/10/23 02:13:54;;;;;;;20.52;5.25;;;;;;;;;;4980749;28;20030;-60
2021/10/23 02:16:21;;;;;;;23.60;4.22;;;;;;;;;;4979465;28;20034;-60
2021/10/23 02:18:50;;;;;;;25.83;5.13;;;;;;;;;;4982171;28;20014;-58
2021/10/23 02:21:18;;;;;;;19.80;4.53;;;;;;;;;;4980314;28;20069;-60
2021/10/23 02:23:47;;;;;;;15.10;5.00;;;;;;;;;;4981805;28;20034;-58
2021/10/23 02:26:16;;;;;;;16.98;4.57;;;;;;;;;;4981748;28;20034;-61
2021/10/23 02:28:44;;;;;;;13.73;4.32;;;;;;;;;;4980119;28;20027;-60
2021/10/23 02:31:12;;;;;;;18.73;4.60;;;;;;;;;;4978949;28;20027;-60
2021/10/23 02:33:40;;;;;;;18.17;4.53;;;;;;;;;;4977180;28;20054;-59
2021/10/23 02:36:08;;;;;;;16.58;4.72;;;;;;;;;;4982101;28;20026;-58
2021/10/23 02:38:37;;;;;;;14.27;4.15;;;;;;;;;;4981767;28;20018;-60
2021/10/23 02:41:04;;;;;;;19.10;4.07;;;;;;;;;;4974339;28;21258;-60
2021/10/23 02:43:32;;;;;;;12.98;4.00;;;;;;;;;;4974657;28;20037;-60
2021/10/23 02:46:01;;;;;;;12.82;4.25;;;;;;;;;;4974427;28;20497;-59
2021/10/23 02:48:29;;;;;;;14.73;4.30;;;;;;;;;;4978542;28;20030;-58
2021/10/23 02:50:57;;;;;;;14.25;4.28;;;;;;;;;;4983144;28;20536;-59
2021/10/23 02:53:26;;;;;;;17.35;4.38;;;;;;;;;;4972865;28;20043;-58
2021/10/23 02:55:54;;;;;;;14.38;4.25;;;;;;;;;;4974419;28;20042;-60
2021/10/23 02:58:22;;;;;;;14.38;4.25;;;;;;;;;;4977457;28;20023;-60
2021/10/23 03:00:51;;;;;;;16.45;3.80;;;;;;;;;;4978415;28;20022;-58
2021/10/23 03:03:19;;;;;;;13.63;3.85;;;;;;;;;;4973671;28;20491;-58
2021/10/23 03:05:47;;;;;;;19.15;4.13;;;;;;;;;;4975929;28;20030;-59
2021/10/23 03:08:16;;;;;;;13.77;3.60;;;;;;;;;;4980346;28;20029;-58
2021/10/23 03:10:44;;;;;;;13.00;4.05;;;;;;;;;;4979742;28;20019;-58
2021/10/23 03:13:13;;;;;;;17.52;4.00;;;;;;;;;;4979000;28;20545;-60
2021/10/23 03:15:41;;;;;;;13.18;3.90;;;;;;;;;;4980263;28;20398;-59
2021/10/23 03:18:09;;;;;;;15.95;3.78;;;;;;;;;;4982257;28;20114;-58
2021/10/23 03:20:38;;;;;;;18.85;4.13;;;;;;;;;;4979381;28;20509;-59
2021/10/23 03:23:06;;;;;;;11.73;3.53;;;;;;;;;;4976574;28;20421;-58
2021/10/23 03:25:35;;;;;;;13.00;3.60;;;;;;;;;;4981286;28;20064;-59
2021/10/23 03:28:02;;;;;;;11.82;3.75;;;;;;;;;;4981099;28;20029;-59
2021/10/23 03:30:30;;;;;;;13.25;3.95;;;;;;;;;;4981262;28;20093;-59
2021/10/23 03:32:58;;;;;;;9.75;2.97;;;;;;;;;;4981387;28;20488;-58
2021/10/23 03:35:26;;;;;;;12.00;3.63;;;;;;;;;;5154733;23;20089;-60
2021/10/23 03:37:54;;;;;;;13.38;3.65;;;;;;;;;;5001177;28;20034;-58
2021/10/23 03:40:23;;;;;;;11.23;3.38;;;;;;;;;;4998640;28;20024;-58
2021/10/23 03:42:50;;;;;;;11.45;3.60;;;;;;;;;;4999207;28;20025;-59
2021/10/23 03:45:17;;;;;;;13.38;3.67;;;;;;;;;;5010342;28;20034;-59
2021/10/23 03:47:45;;;;;;;11.73;3.47;;;;;;;;;;5010632;28;20021;-59
2021/10/23 03:50:12;;;;;;;11.50;3.42;;;;;;;;;;5009925;28;20018;-59
2021/10/23 03:52:39;;;;;;;10.40;3.70;;;;;;;;;;5010670;28;20038;-59
2021/10/23 03:55:10;;;;;;;9.93;3.10;;;;;;;;;;5011153;28;20047;-59
2021/10/23 03:57:37;;;;;;;13.18;3.30;;;;;;;;;;5011340;28;20406;-59
2021/10/23 04:00:06;;;;;;;10.93;3.15;;;;;;;;;;5010935;28;20070;-59
2021/10/23 04:02:33;;;;;;;10.27;3.13;;;;;;;;;;5011576;28;20058;-59
2021/10/23 04:05:00;;;;;;;12.88;3.13;;;;;;;;;;5012433;28;20075;-59
2021/10/23 04:07:27;;;;;;;12.38;2.90;;;;;;;;;;5012504;28;20026;-60
2021/10/23 04:09:54;;;;;;;10.32;3.33;;;;;;;;;;5010973;28;20064;-60
2021/10/23 04:12:21;;;;;;;12.27;2.80;;;;;;;;;;5011259;28;20026;-61
2021/10/23 04:14:48;;;;;;;9.75;3.00;;;;;;;;;;5012178;28;20030;-59
2021/10/23 04:17:15;;;;;;;6.32;2.92;;;;;;;;;;5012231;28;20152;-59
2021/10/23 04:19:42;;;;;;;10.52;2.97;;;;;;;;;;5011877;28;20022;-62
2021/10/23 04:22:09;;;;;;;9.63;2.80;;;;;;;;;;5011721;28;20573;-59
2021/10/23 04:24:37;;;;;;;7.90;2.80;;;;;;;;;;5011992;28;20034;-60
2021/10/23 04:27:04;;;;;;;11.82;3.13;;;;;;;;;;5015825;28;20024;-59
2021/10/23 04:29:31;;;;;;;8.90;2.78;;;;;;;;;;5015945;28;20077;-59
2021/10/23 04:31:59;;;;;;;8.05;2.45;;;;;;;;;;5016173;28;20018;-59
2021/10/23 04:34:26;;;;;;;12.45;3.72;;;;;;;;;;5015789;28;20068;-59
2021/10/23 04:36:53;;;;;;;31.48;3.78;;;;;;;;;;5015899;28;20022;-59
2021/10/23 04:39:20;;;;;;;8.48;2.60;;;;;;;;;;5015828;28;20427;-59
2021/10/23 04:41:47;;;;;;;8.70;2.60;;;;;;;;;;5015469;28;20033;-59
2021/10/23 04:44:14;;;;;;;6.93;2.70;;;;;;;;;;5015712;28;20053;-59
2021/10/23 04:46:41;;;;;;;7.43;2.63;;;;;;;;;;5015796;28;20030;-59
2021/10/23 04:49:08;;;;;;;10.52;2.85;;;;;;;;;;5015728;28;20473;-59
2021/10/23 04:51:35;;;;;;;8.57;2.83;;;;;;;;;;5015678;28;20409;-60
2021/10/23 04:54:02;;;;;;;8.93;2.50;;;;;;;;;;5015629;28;20025;-60
2021/10/23 04:56:29;;;;;;;9.30;3.22;;;;;;;;;;5015633;28;20052;-60
2021/10/23 04:58:56;;;;;;;7.65;2.40;;;;;;;;;;5014360;28;20455;-59
2021/10/23 05:01:23;;;;;;;9.07;2.42;;;;;;;;;;5015442;28;20026;-59
2021/10/23 05:03:51;;;;;;;8.65;3.05;;;;;;;;;;5015744;28;20029;-59
2021/10/23 05:06:18;;;;;;;10.65;3.03;;;;;;;;;;5015461;28;20030;-59
2021/10/23 05:08:45;;;;;;;7.00;2.60;;;;;;;;;;5015257;28;20544;-60
2021/10/23 05:11:12;;;;;;;8.30;2.80;;;;;;;;;;5015409;28;20047;-60
2021/10/23 05:13:39;;;;;;;6.88;2.17;;;;;;;;;;5015406;28;20029;-59
2021/10/23 05:16:06;;;;;;;7.03;2.42;;;;;;;;;;5015447;28;20381;-59
2021/10/23 05:18:33;;;;;;;12.18;2.42;;;;;;;;;;5015339;28;20557;-58
2021/10/23 05:21:01;;;;;;;6.05;2.20;;;;;;;;;;5015122;28;20026;-59
2021/10/23 05:23:28;;;;;;;6.25;2.50;;;;;;;;;;5015021;28;20034;-60
2021/10/23 05:25:55;;;;;;;10.00;3.00;;;;;;;;;;5015021;28;20033;-60
2021/10/23 05:28:22;;;;;;;7.45;2.20;;;;;;;;;;5013754;28;20033;-61
2021/10/23 05:30:49;;;;;;;9.52;2.75;;;;;;;;;;5014963;28;20017;-60
2021/10/23 05:33:16;;;;;;;7.90;2.13;;;;;;;;;;5015308;28;20481;-60
2021/10/23 05:35:43;;;;;;;6.35;2.30;;;;;;;;;;5014078;28;20493;-60
2021/10/23 05:38:10;;;;;;;6.25;2.50;;;;;;;;;;5014354;28;20030;-60
2021/10/23 05:40:37;;;;;;;6.20;2.13;;;;;;;;;;5014806;28;20018;-61
2021/10/23 05:43:04;;;;;;;6.80;2.53;;;;;;;;;;5014511;28;20493;-60
2021/10/23 05:45:31;;;;;;;7.20;2.60;;;;;;;;;;5014742;28;20053;-60
2021/10/23 05:47:58;;;;;;;6.30;2.13;;;;;;;;;;5014621;28;20026;-60
2021/10/23 05:50:25;;;;;;;5.20;2.13;;;;;;;;;;5013535;28;20022;-60
2021/10/23 05:52:52;;;;;;;4.78;2.03;;;;;;;;;;5013967;28;20362;-60
2021/10/23 05:55:19;;;;;;;7.40;2.40;;;;;;;;;;5014161;28;20056;-61
2021/10/23 05:57:46;;;;;;;6.57;2.33;;;;;;;;;;5014562;28;20029;-60
2021/10/23 06:00:14;;;;;;;5.65;2.25;;;;;;;;;;5014382;28;20034;-60
2021/10/23 06:02:42;;;;;;;5.35;2.10;;;;;;;;;;5014321;28;20073;-60
2021/10/23 06:05:10;;;;;;;5.13;2.10;;;;;;;;;;5014511;28;20018;-60
2021/10/23 06:07:39;;;;;;;5.75;2.38;;;;;;;;;;5014169;28;20037;-60
2021/10/23 06:10:07;;;;;;;4.55;1.88;;;;;;;;;;5014292;28;20014;-62
2021/10/23 06:12:34;;;;;;;6.03;1.90;;;;;;;;;;5014025;28;20631;-60
2021/10/23 06:15:01;;;;;;;5.35;1.95;;;;;;;;;;5014096;28;20481;-60
2021/10/23 06:17:28;;;;;;;4.72;1.77;;;;;;;;;;5014174;28;20030;-60
2021/10/23 06:19:55;;;;;;;5.00;1.98;;;;;;;;;;5014143;28;20042;-59
2021/10/23 06:22:22;;;;;;;5.53;2.40;;;;;;;;;;5013703;28;20045;-60
2021/10/23 06:24:49;;;;;;;7.70;2.33;;;;;;;;;;5013952;28;20025;-60
2021/10/23 06:27:16;;;;;;;9.32;2.42;;;;;;;;;;5013946;28;20080;-60
2021/10/23 06:29:43;;;;;;;7.00;2.33;;;;;;;;;;5013875;28;20045;-60
2021/10/23 06:32:10;;;;;;;4.65;2.05;;;;;;;;;;5013695;28;20118;-60
2021/10/23 06:34:41;;;;;;;10.13;2.45;;;;;;;;;;5013708;28;20053;-60
2021/10/23 06:37:09;;;;;;;5.90;1.88;;;;;;;;;;5013819;28;20057;-60
2021/10/23 06:39:36;;;;;;;9.48;2.40;;;;;;;;;;5013674;28;20025;-60
2021/10/23 06:42:04;;;;;;;5.22;1.95;;;;;;;;;;5013630;28;20084;-61
2021/10/23 06:44:31;;;;;;;6.00;2.40;;;;;;;;;;5013699;28;20420;-60
2021/10/23 06:46:58;;;;;;;6.68;2.10;;;;;;;;;;5013613;28;20030;-60
2021/10/23 06:49:25;;;;;;;6.20;2.03;;;;;;;;;;5012460;28;20033;-60
2021/10/23 06:51:52;;;;;;;5.80;2.15;;;;;;;;;;5013481;28;20485;-60
2021/10/23 06:54:19;;;;;;;4.18;1.92;;;;;;;;;;5013329;28;20044;-60
2021/10/23 06:56:46;;;;;;;9.35;2.85;;;;;;;;;;5013379;28;20026;-60
2021/10/23 06:59:13;;;;;;;5.60;2.03;;;;;;;;;;5013409;28;20030;-61
2021/10/23 07:01:40;;;;;;;7.35;2.42;;;;;;;;;;5013259;28;20382;-60
2021/10/23 07:04:07;;;;;;;3.83;1.85;;;;;;;;;;5013089;28;20048;-60
2021/10/23 07:06:34;;;;;;;5.10;1.83;;;;;;;;;;5013136;28;20020;-59
2021/10/23 07:09:01;;;;;;;5.93;2.40;;;;;;;;;;5013160;28;20030;-58
2021/10/23 07:11:28;;;;;;;4.57;1.92;;;;;;;;;;5012834;28;20105;-58
2021/10/23 07:13:55;;;;;;;6.10;2.20;;;;;;;;;;5013096;28;20029;-58
2021/10/23 07:16:22;;;;;;;5.10;2.22;;;;;;;;;;5012992;28;20105;-58
2021/10/23 07:18:49;;;;;;;6.32;2.03;;;;;;;;;;5012971;28;20032;-58
2021/10/23 07:21:16;;;;;;;7.40;2.30;;;;;;;;;;5012957;28;20053;-59
2021/10/23 07:23:43;;;;;;;5.35;2.05;;;;;;;;;;5012548;28;20461;-58
2021/10/23 07:26:10;;;;;;;5.13;2.10;;;;;;;;;;5012955;28;20472;-58
2021/10/23 07:28:37;;;;;;;7.10;2.33;;;;;;;;;;5013000;28;20022;-58
2021/10/23 07:31:04;;;;;;;6.75;2.38;;;;;;;;;;5012814;28;20049;-58
2021/10/23 07:33:31;;;;;;;5.13;2.03;;;;;;;;;;5012451;28;20026;-58
2021/10/23 07:35:58;;;;;;;4.30;1.90;;;;;;;;;;5012574;28;20125;-58
2021/10/23 07:38:25;;;;;;;5.10;2.05;;;;;;;;;;5012633;28;20024;-58
2021/10/23 07:40:52;;;;;;;5.20;2.15;;;;;;;;;;5012595;28;20061;-58
2021/10/23 07:43:20;;;;;;;4.15;1.88;;;;;;;;;;5012469;28;20382;-59
2021/10/23 07:45:49;;;;;;;3.75;1.77;;;;;;;;;;5012739;28;20013;-58
2021/10/23 07:48:20;;;;;;;4.72;2.08;;;;;;;;;;5012756;28;20102;-58
2021/10/23 07:50:48;;;;;;;5.15;2.20;;;;;;;;;;5012596;28;20466;-58
2021/10/23 07:53:19;;;;;;;6.60;1.95;;;;;;;;;;5011915;28;20076;-58
2021/10/23 07:55:46;;;;;;;6.03;2.08;;;;;;;;;;5010969;28;20030;-58
2021/10/23 07:58:13;;;;;;;4.38;1.80;;;;;;;;;;5012485;28;20466;-58
2021/10/23 08:00:40;;;;;;;5.03;2.08;;;;;;;;;;5012277;28;20044;-58
2021/10/23 08:03:07;;;;;;;4.95;2.00;;;;;;;;;;5012136;28;20446;-58
2021/10/23 08:05:35;;;;;;;5.47;2.33;;;;;;;;;;5012168;28;20498;-58
2021/10/23 08:08:03;;;;;;;4.32;1.85;;;;;;;;;;5012518;28;20061;-58
2021/10/23 08:10:30;;;;;;;5.75;2.40;;;;;;;;;;5012318;28;20033;-58
2021/10/23 08:12:57;;;;;;;4.28;2.17;;;;;;;;;;5012320;28;20022;-58
2021/10/23 08:15:25;;;;;;;3.90;1.92;;;;;;;;;;5011175;28;20014;-58
2021/10/23 08:17:57;;;;;;;5.13;2.20;;;;;;;;;;5012184;28;20026;-58
2021/10/23 08:20:24;;;;;;;5.60;2.40;;;;;;;;;;5012382;28;20481;-58
2021/10/23 08:22:51;;;;;;;5.90;2.10;;;;;;;;;;5012499;28;20085;-58
2021/10/23 08:25:18;;;;;;;4.38;1.75;;;;;;;;;;5011979;28;20018;-58
2021/10/23 08:27:46;;;;;;;5.10;1.85;;;;;;;;;;5012327;28;20501;-59
2021/10/23 08:30:15;;;;;;;3.75;1.80;;;;;;;;;;5012340;28;20018;-58
2021/10/23 08:32:43;;;;;;;4.00;1.77;;;;;;;;;;5012117;28;20393;-58
2021/10/23 08:35:10;;;;;;;5.20;2.50;;;;;;;;;;5011451;28;20052;-58
2021/10/23 08:37:38;;;;;;;6.80;2.33;;;;;;;;;;5012039;28;20034;-59
2021/10/23 08:40:06;;;;;;;4.25;1.70;;;;;;;;;;5012427;28;20108;-58
2021/10/23 08:42:33;;;;;;;4.30;1.90;;;;;;;;;;5012029;28;20040;-57
2021/10/23 08:45:01;;;;;;;4.18;1.98;;;;;;;;;;5012099;28;20025;-58
2021/10/23 08:47:31;;;;;;;5.18;1.90;;;;;;;;;;5012174;28;20026;-58
2021/10/23 08:49:59;;;;;;;4.05;1.88;;;;;;;;;;5012113;28;20026;-59
2021/10/23 08:52:27;;;;;;;4.72;1.67;;;;;;;;;;5012072;28;20022;-59
2021/10/23 08:54:55;;;;;;;3.83;1.80;;;;;;;;;;5012222;28;20029;-58
2021/10/23 08:57:28;;;;;;;4.53;2.08;;;;;;;;;;5012064;28;20026;-59
2021/10/23 08:59:55;;;;;;;5.80;1.73;;;;;;;;;;5011913;28;20041;-58
2021/10/23 09:02:23;;;;;;;4.32;1.90;;;;;;;;;;5011873;28;20030;-59
2021/10/23 09:04:51;;;;;;;4.15;1.95;;;;;;;;;;5011933;28;20377;-58
2021/10/23 09:07:18;;;;;;;3.40;1.58;;;;;;;;;;5011902;28;20415;-58
2021/10/23 09:09:53;;;;;;;4.57;1.80;;;;;;;;;;5011989;28;20025;-59
2021/10/23 09:12:30;;;;;;;3.50;1.45;;;;;;;;;;5014149;28;20113;-58
2021/10/23 09:15:06;;;;;;;3.90;1.83;;;;;;;;;;5014179;28;20430;-58
2021/10/23 09:17:34;;;;;;;5.30;2.10;;;;;;;;;;5015715;28;20095;-58
2021/10/23 09:20:21;;;;;;;5.18;1.98;;;;;;;;;;5015432;28;20366;-59
2021/10/23 09:22:49;;;;;;;4.15;1.70;;;;;;;;;;5014449;28;20049;-59
2021/10/23 09:25:17;;;;;;;3.47;1.70;;;;;;;;;;5015096;28;20029;-58
2021/10/23 09:27:52;;;;;;;3.20;1.40;;;;;;;;;;5015422;28;20486;-60
2021/10/23 09:30:24;;;;;;;4.40;1.77;;;;;;;;;;5013685;28;20376;-59
2021/10/23 09:32:51;;;;;;;;;;;;;;;;;;5015470;28;20034;-59
2021/10/23 09:35:18;;;;;;;4.45;1.90;;;;;;;;;;5013225;28;19917;-59
2021/10/23 09:37:46;;;;;;;3.75;1.55;;;;;;;;;;5013912;28;20473;-58
2021/10/23 09:40:17;;;;;;;4.10;1.60;;;;;;;;;;5014935;28;20033;-58
2021/10/23 09:42:44;;;;;;;3.65;1.58;;;;;;;;;;5014832;28;20030;-59
2021/10/23 09:45:11;;;;;;;3.67;1.88;;;;;;;;;;5014896;28;20076;-58
2021/10/23 09:47:39;;;;;;;6.45;1.98;;;;;;;;;;5014883;28;20029;-59
2021/10/23 09:50:24;;;;;;;5.68;1.63;;;;;;;;;;5014781;28;20033;-59
2021/10/23 09:53:00;;;;;;;5.70;2.00;;;;;;;;;;5014728;28;20389;-59
2021/10/23 09:55:28;;;;;;;4.95;1.80;;;;;;;;;;5014510;28;20109;-58
2021/10/23 09:58:13;;;;;;;6.38;2.15;;;;;;;;;;5014586;28;20543;-58
2021/10/23 10:00:41;;;;;;;3.33;1.30;;;;;;;;;;5014510;28;20029;-59
2021/10/23 10:03:08;;;;;;;3.63;1.30;;;;;;;;;;5014435;28;20034;-59
2021/10/23 10:05:36;;;;;;;4.43;1.80;;;;;;;;;;5014619;28;20083;-59
2021/10/23 10:08:09;;;;;;;4.28;1.90;;;;;;;;;;5014608;28;20022;-58
2021/10/23 10:10:40;;;;;;;6.35;1.83;;;;;;;;;;5014409;28;20050;-58
2021/10/23 10:13:09;;;;;;;4.55;1.77;;;;;;;;;;5014230;28;20093;-58
2021/10/23 10:15:36;;;;;;;8.65;1.55;;;;;;;;;;5014255;28;20026;-59
2021/10/23 10:18:09;;;;;;;5.38;1.92;;;;;;;;;;5014308;28;20025;-58
2021/10/23 10:20:37;;;;;;;5.93;1.63;;;;;;;;;;5013106;28;20037;-59
2021/10/23 10:23:05;;;;;;;4.90;2.00;;;;;;;;;;5013036;28;20370;-58
2021/10/23 10:25:32;;;;;;;8.18;2.00;;;;;;;;;;5013694;28;20097;-58
2021/10/23 10:28:10;;;;;;;12.00;2.35;;;;;;;;;;5012868;28;20036;-58
2021/10/23 10:30:38;;;;;;;10.10;2.42;;;;;;;;;;5011389;28;20050;-59
2021/10/23 10:33:21;;;;;;;8.10;1.90;;;;;;;;;;5013220;28;20489;-58
2021/10/23 10:36:02;;;;;;;;;;;;;;;;;;5011799;28;20421;-58
2021/10/23 10:44:08;;;;;;;6.40;2.42;;;;;;;;;;5013072;28;20481;-59
2021/10/23 10:46:53;;;;;;;8.80;2.45;;;;;;;;;;5013091;28;20113;-58
2021/10/23 10:49:38;;;;;;;5.68;1.83;;;;;;;;;;5013458;28;20032;-58
2021/10/23 10:52:24;;;;;;;5.20;1.88;;;;;;;;;;5013388;28;20014;-58
2021/10/23 10:55:24;;;;;;;5.70;2.03;;;;;;;;;;5012878;28;20574;-58
2021/10/23 10:58:09;;;;;;;6.25;2.17;;;;;;;;;;4979762;28;20525;-59
2021/10/23 11:00:48;;;;;;;8.15;1.90;;;;;;;;;;5013553;28;20022;-59
2021/10/23 11:03:37;;;;;;;5.43;2.00;;;;;;;;;;5012209;28;20037;-58
2021/10/23 11:06:22;;;;;;;7.00;2.00;;;;;;;;;;5012697;28;20027;-58
2021/10/23 11:08:49;;;;;;;7.28;2.00;;;;;;;;;;5012593;28;20026;-58
2021/10/23 11:11:16;;;;;;;5.97;1.70;;;;;;;;;;5012875;28;20489;-58
2021/10/23 11:13:44;;;;;;;7.45;1.65;;;;;;;;;;5012674;28;20024;-58
2021/10/23 11:16:24;;;;;;;5.82;2.35;;;;;;;;;;5012490;28;20060;-58
2021/10/23 11:18:55;;;;;;;4.97;1.80;;;;;;;;;;5013057;28;20034;-58
2021/10/23 11:21:22;;;;;;;5.45;1.73;;;;;;;;;;5012872;28;20032;-58
2021/10/23 11:23:52;;;;;;;6.30;1.90;;;;;;;;;;5012996;28;20038;-58
2021/10/23 11:26:20;;;;;;;6.88;1.85;;;;;;;;;;5012161;28;20022;-59
2021/10/23 11:28:47;;;;;;;8.07;2.10;;;;;;;;;;5011970;28;20025;-58
2021/10/23 11:31:24;;;;;;;5.45;1.85;;;;;;;;;;5010829;28;20434;-58
2021/10/23 11:33:51;;;;;;;8.00;2.17;;;;;;;;;;5010572;28;20017;-59
2021/10/23 11:36:19;;;;;;;5.18;1.55;;;;;;;;;;5011435;28;20065;-59
2021/10/23 11:38:49;;;;;;;6.88;1.60;;;;;;;;;;5011425;28;20101;-58
2021/10/23 11:41:23;;;;;;;4.65;1.60;;;;;;;;;;5012266;28;20441;-57
2021/10/23 11:43:52;;;;;;;5.20;1.65;;;;;;;;;;5012345;28;20029;-58
2021/10/23 11:46:19;;;;;;;7.35;1.63;;;;;;;;;;5010235;28;20395;-58
2021/10/23 11:48:59;;;;;;;5.13;1.70;;;;;;;;;;5010880;28;20527;-58
2021/10/23 11:51:26;;;;;;;6.75;1.60;;;;;;;;;;5012762;28;20022;-59
2021/10/23 11:53:59;;;;;;;12.13;2.15;;;;;;;;;;5012548;28;20491;-58
2021/10/23 11:56:26;;;;;;;6.95;1.58;;;;;;;;;;5012518;28;20030;-59
2021/10/23 11:58:58;;;;;;;15.50;2.05;;;;;;;;;;5011508;28;20018;-59
2021/10/23 12:01:28;;;;;;;11.60;1.70;;;;;;;;;;5011976;28;20030;-60
2021/10/23 12:04:01;;;;;;;14.00;1.63;;;;;;;;;;5012383;28;20042;-59
2021/10/23 12:06:37;;;;;;;7.25;1.40;;;;;;;;;;5011942;28;20022;-59
2021/10/23 12:09:19;;;;;;;9.38;1.70;;;;;;;;;;5011897;28;20018;-59
2021/10/23 12:12:06;;;;;;;12.65;1.60;;;;;;;;;;5012419;28;20025;-58
2021/10/23 12:14:33;;;;;;;27.63;1.90;;;;;;;;;;5010407;28;20030;-59
2021/10/23 12:17:00;;;;;;;8.35;1.40;;;;;;;;;;5024099;28;20025;-58
2021/10/23 12:19:35;;;;;;;7.57;1.40;;;;;;;;;;5029527;28;20042;-59
2021/10/23 12:22:08;;;;;;;36.45;2.40;;;;;;;;;;5023298;28;20092;-58
2021/10/23 12:24:39;;;;;;;17.90;1.95;;;;;;;;;;5028191;28;20013;-59
2021/10/23 12:27:24;;;;;;;26.13;2.30;;;;;;;;;;5027382;28;20017;-59
2021/10/23 12:29:55;;;;;;;14.45;1.60;;;;;;;;;;5027368;28;20025;-58
2021/10/23 12:32:43;;;;;;;34.72;2.75;;;;;;;;;;5008859;28;20088;-60
2021/10/23 12:35:14;;;;;;;16.70;2.45;;;;;;;;;;5011786;28;20054;-61
2021/10/23 12:37:54;;;;;;;14.80;1.88;;;;;;;;;;5011239;28;20025;-61
2021/10/23 12:40:27;;;;;;;18.45;1.48;;;;;;;;;;5009948;28;20034;-60
2021/10/23 12:42:58;;;;;;;17.75;1.98;;;;;;;;;;5011995;28;20041;-61
2021/10/23 12:45:27;;;;;;;20.52;1.95;;;;;;;;;;5011447;28;20026;-61
2021/10/23 12:47:57;;;;;;;18.23;1.80;;;;;;;;;;5010687;28;20437;-61
2021/10/23 12:50:24;;;;;;;22.80;2.20;;;;;;;;;;5030680;28;20421;-60
2021/10/23 12:52:52;;;;;;;15.57;1.77;;;;;;;;;;5034231;28;20093;-60
2021/10/23 12:55:19;;;;;;;12.50;1.98;;;;;;;;;;5035093;28;20421;-61
2021/10/23 12:57:46;;;;;;;20.30;2.22;;;;;;;;;;5035559;28;20037;-60
2021/10/23 13:00:14;;;;;;;9.90;1.73;;;;;;;;;;5033899;28;20030;-60
2021/10/23 13:02:42;;;;;;;14.65;1.77;;;;;;;;;;5034039;28;20037;-60
2021/10/23 13:05:09;;;;;;;11.70;1.77;;;;;;;;;;5033967;28;20033;-60
2021/10/23 13:07:36;;;;;;;12.30;2.00;;;;;;;;;;5034183;28;20030;-60
2021/10/23 13:10:04;;;;;;;9.32;1.60;;;;;;;;;;5034385;28;20018;-60
2021/10/23 13:12:31;;;;;;;12.43;2.00;;;;;;;;;;5035185;28;20049;-60
2021/10/23 13:14:58;;;;;;;12.68;1.63;;;;;;;;;;5033361;28;20471;-60
2021/10/23 13:17:25;;;;;;;20.73;2.00;;;;;;;;;;5034039;28;20014;-59
2021/10/23 13:19:52;;;;;;;13.75;2.13;;;;;;;;;;5034907;28;20029;-62
2021/10/23 13:22:19;;;;;;;20.52;2.20;;;;;;;;;;5034888;28;20022;-61
2021/10/23 13:24:46;;;;;;;16.83;2.35;;;;;;;;;;5033895;28;20029;-61
2021/10/23 13:27:13;;;;;;;13.27;1.65;;;;;;;;;;5030780;28;20029;-60
2021/10/23 13:29:40;;;;;;;23.92;2.00;;;;;;;;;;5032555;28;20053;-61
2021/10/23 13:32:10;;;;;;;19.17;2.17;;;;;;;;;;5034016;28;20385;-62
2021/10/23 13:34:37;;;;;;;24.80;2.53;;;;;;;;;;5033992;28;20067;-61
2021/10/23 13:37:04;;;;;;;23.90;2.33;;;;;;;;;;5032428;28;20028;-61
2021/10/23 13:39:31;;;;;;;22.80;2.38;;;;;;;;;;5028798;28;20021;-60
2021/10/23 13:41:58;;;;;;;18.23;1.67;;;;;;;;;;5014391;28;20034;-62
2021/10/23 13:44:25;;;;;;;11.30;2.10;;;;;;;;;;5012925;28;20428;-61
2021/10/23 13:46:53;;;;;;;12.38;2.30;;;;;;;;;;5014347;28;20073;-61
2021/10/23 13:49:20;;;;;;;20.15;2.38;;;;;;;;;;5014946;28;20048;-59
2021/10/23 13:51:47;;;;;;;13.93;1.90;;;;;;;;;;5013645;28;20393;-60
2021/10/23 13:54:14;;;;;;;15.43;1.75;;;;;;;;;;5014677;28;20029;-61
2021/10/23 13:56:41;;;;;;;15.32;2.20;;;;;;;;;;5014559;28;20022;-61
2021/10/23 13:59:08;;;;;;;10.52;1.75;;;;;;;;;;5014541;28;20026;-61
2021/10/23 14:01:35;;;;;;;8.70;1.40;;;;;;;;;;5014527;28;20053;-61
2021/10/23 14:04:02;;;;;;;14.63;2.40;;;;;;;;;;5014486;28;20034;-60
2021/10/23 14:06:29;;;;;;;12.38;2.05;;;;;;;;;;5014561;28;20022;-61
2021/10/23 14:08:56;;;;;;;10.82;1.90;;;;;;;;;;5014434;28;20029;-60
2021/10/23 14:11:23;;;;;;;17.23;1.83;;;;;;;;;;5013176;28;20022;-61
2021/10/23 14:13:50;;;;;;;16.08;1.83;;;;;;;;;;5014467;28;20112;-61
2021/10/23 14:16:17;;;;;;;13.32;1.65;;;;;;;;;;5014307;28;20033;-61
2021/10/23 14:18:45;;;;;;;17.80;1.90;;;;;;;;;;5014389;28;20077;-61
2021/10/23 14:21:14;;;;;;;15.40;1.90;;;;;;;;;;5013190;28;20049;-61
2021/10/23 14:23:41;;;;;;;15.95;1.75;;;;;;;;;;5014041;28;20030;-61
2021/10/23 14:26:08;;;;;;;20.70;2.03;;;;;;;;;;5014177;28;20042;-60
2021/10/23 14:28:44;;;;;;;16.73;1.85;;;;;;;;;;5014265;28;20061;-61
2021/10/23 14:31:18;;;;;;;16.95;2.25;;;;;;;;;;5014243;28;20024;-61
2021/10/23 14:33:46;;;;;;;28.48;2.58;;;;;;;;;;5013610;28;20026;-60
2021/10/23 14:36:13;;;;;;;20.95;2.55;;;;;;;;;;5013954;28;20030;-61
2021/10/23 14:38:41;;;;;;;21.05;2.40;;;;;;;;;;5013949;28;20053;-62
2021/10/23 14:41:09;;;;;;;22.70;3.03;;;;;;;;;;5013928;28;20025;-61
2021/10/23 14:43:36;;;;;;;17.38;2.10;;;;;;;;;;5013635;28;20037;-60
2021/10/23 14:46:03;;;;;;;18.67;2.47;;;;;;;;;;5013923;28;20019;-62
2021/10/23 14:48:31;;;;;;;14.80;1.65;;;;;;;;;;5013695;28;20026;-60
2021/10/23 14:50:59;;;;;;;18.02;2.20;;;;;;;;;;5013722;28;20105;-60
2021/10/23 14:53:26;;;;;;;21.55;2.00;;;;;;;;;;5013760;28;20133;-61